Terminal Aerodrome Forecast
Issued by NWS Wilmington, NC

Home | Current Version | Previous Version | Text Only | Print | Product List | Glossary On
Versions: 1 2 3 4 5 6 7 8 9 10 11 12 13 14 15 16
000
FTUS42 KILM 222300
TAFMYR
TAF
KMYR 222325Z 2300/2324 35010KT 4SM RA BR OVC004
     FM230300 05004KT 3SM BR VCSH OVC003
     FM231500 16007KT P6SM VCSH BKN006 OVC035
     FM231900 15009KT 4SM -RA BR BKN007 OVC015
      AMD LTD TO CLD VIS AND WIND 2304/2311=

USA.gov is the U.S. government's official web portal to all federal, state and local government web resources and services.